createdAt,value
2017-08-06T00:00:02.044Z,1009.12
2017-08-06T00:01:02.006Z,1009.13
2017-08-06T00:02:01.983Z,1009.13
2017-08-06T00:03:01.955Z,1009.11
2017-08-06T00:04:01.936Z,1009.12
2017-08-06T00:05:01.912Z,1009.14
2017-08-06T00:06:01.886Z,1009.13
2017-08-06T00:07:01.866Z,1009.13
2017-08-06T00:08:01.842Z,1009.16
2017-08-06T00:09:01.819Z,1009.15
2017-08-06T00:10:01.795Z,1009.2
2017-08-06T00:11:01.778Z,1009.2
2017-08-06T00:12:01.751Z,1009.18
2017-08-06T00:13:01.728Z,1009.18
2017-08-06T00:14:01.704Z,1009.22
2017-08-06T00:15:01.681Z,1009.25
2017-08-06T00:16:01.660Z,1009.25
2017-08-06T00:17:01.635Z,1009.24
2017-08-06T00:18:01.612Z,1009.23
2017-08-06T00:19:01.590Z,1009.26
2017-08-06T00:20:01.567Z,1009.24
2017-08-06T00:21:01.544Z,1009.25
2017-08-06T00:22:01.522Z,1009.3
2017-08-06T00:23:01.499Z,1009.3
2017-08-06T00:24:01.475Z,1009.36
2017-08-06T00:25:01.472Z,1009.37
2017-08-06T00:26:01.428Z,1009.35
2017-08-06T00:27:01.406Z,1009.41
2017-08-06T00:28:01.382Z,1009.37
2017-08-06T00:29:01.361Z,1009.36
2017-08-06T00:30:01.338Z,1009.43
2017-08-06T00:31:01.314Z,1009.44
2017-08-06T00:32:01.292Z,1009.46
2017-08-06T00:33:01.268Z,1009.46
2017-08-06T00:34:01.246Z,1009.44
2017-08-06T00:35:01.222Z,1009.46
2017-08-06T00:36:01.199Z,1009.45
2017-08-06T00:37:01.176Z,1009.46
2017-08-06T00:38:01.154Z,1009.5
2017-08-06T00:39:01.132Z,1009.49
2017-08-06T00:40:01.108Z,1009.51
2017-08-06T00:41:01.084Z,1009.5
2017-08-06T00:42:01.061Z,1009.52
2017-08-06T00:43:01.038Z,1009.52
2017-08-06T00:44:01.015Z,1009.45
2017-08-06T00:45:00.993Z,1009.51
2017-08-06T00:46:00.969Z,1009.5
2017-08-06T00:47:00.949Z,1009.52
2017-08-06T00:48:00.922Z,1009.5
2017-08-06T00:49:00.900Z,1009.5
2017-08-06T00:50:00.876Z,1009.53
2017-08-06T00:51:00.853Z,1009.52
2017-08-06T00:52:00.831Z,1009.52
2017-08-06T00:53:00.806Z,1009.55
2017-08-06T00:54:00.784Z,1009.55
2017-08-06T00:55:00.762Z,1009.52
2017-08-06T00:56:00.737Z,1009.5
2017-08-06T00:57:00.713Z,1009.52
2017-08-06T00:58:00.689Z,1009.52
2017-08-06T00:59:00.668Z,1009.53
2017-08-06T01:00:00.645Z,1009.56
2017-08-06T01:01:00.621Z,1009.6
2017-08-06T01:02:00.598Z,1009.61
2017-08-06T01:03:00.574Z,1009.59
2017-08-06T01:04:00.552Z,1009.57
2017-08-06T01:05:00.529Z,1009.62
2017-08-06T01:06:00.506Z,1009.61
2017-08-06T01:07:00.483Z,1009.62
2017-08-06T01:08:00.457Z,1009.62
2017-08-06T01:09:00.438Z,1009.6
2017-08-06T01:10:00.412Z,1009.62
2017-08-06T01:11:00.390Z,1009.62
2017-08-06T01:12:00.365Z,1009.64
2017-08-06T01:13:00.343Z,1009.66
2017-08-06T01:14:00.319Z,1009.62
2017-08-06T01:15:00.297Z,1009.66
2017-08-06T01:16:00.273Z,1009.67
2017-08-06T01:17:00.252Z,1009.63
2017-08-06T01:18:00.227Z,1009.65
2017-08-06T01:19:00.202Z,1009.63
2017-08-06T01:20:00.180Z,1009.63
2017-08-06T01:21:00.158Z,1009.66
2017-08-06T01:22:00.134Z,1009.7
2017-08-06T01:23:00.108Z,1009.71
2017-08-06T01:24:00.087Z,1009.72
2017-08-06T01:25:00.063Z,1009.75
2017-08-06T01:26:00.040Z,1009.76
2017-08-06T01:27:00.017Z,1009.72
2017-08-06T01:27:59.992Z,1009.73
2017-08-06T01:28:59.970Z,1009.77
2017-08-06T01:29:59.948Z,1009.75
2017-08-06T01:30:59.922Z,1009.76
2017-08-06T01:31:59.900Z,1009.79
2017-08-06T01:32:59.877Z,1009.79
2017-08-06T01:33:59.853Z,1009.79
2017-08-06T01:34:59.829Z,1009.79
2017-08-06T01:35:59.806Z,1009.78
2017-08-06T01:36:59.784Z,1009.79
2017-08-06T01:37:59.759Z,1009.76
2017-08-06T01:38:59.736Z,1009.76
2017-08-06T01:39:59.713Z,1009.78
2017-08-06T01:40:59.689Z,1009.78
2017-08-06T01:41:59.666Z,1009.82
2017-08-06T01:42:59.643Z,1009.82
2017-08-06T01:43:59.619Z,1009.82
2017-08-06T01:44:59.595Z,1009.84
2017-08-06T01:45:59.572Z,1009.82
2017-08-06T01:46:59.549Z,1009.84
2017-08-06T01:47:59.524Z,1009.86
2017-08-06T01:48:59.501Z,1009.87
2017-08-06T01:49:59.478Z,1009.9
2017-08-06T01:50:59.454Z,1009.94
2017-08-06T01:51:59.430Z,1009.92
2017-08-06T01:52:59.406Z,1009.94
2017-08-06T01:53:59.383Z,1009.94
2017-08-06T01:54:59.360Z,1009.89
2017-08-06T01:55:59.335Z,1009.97
2017-08-06T01:56:59.312Z,1009.96
2017-08-06T01:57:59.288Z,1010
2017-08-06T01:58:59.265Z,1009.94
2017-08-06T01:59:59.245Z,1009.96
2017-08-06T02:00:59.218Z,1009.98
2017-08-06T02:01:59.194Z,1009.97
2017-08-06T02:02:59.170Z,1009.98
2017-08-06T02:03:59.145Z,1009.99
2017-08-06T02:04:59.122Z,1009.98
2017-08-06T02:05:59.100Z,1009.98
2017-08-06T02:06:59.074Z,1010.03
2017-08-06T02:07:59.049Z,1010.02
2017-08-06T02:08:59.028Z,1010.02
2017-08-06T02:09:59.004Z,1010
2017-08-06T02:10:58.980Z,1010.01
2017-08-06T02:11:58.957Z,1010
2017-08-06T02:12:58.933Z,1010.04
2017-08-06T02:13:58.908Z,1010.04
2017-08-06T02:14:58.884Z,1010.02
2017-08-06T02:15:58.867Z,1010.07
2017-08-06T02:16:58.838Z,1010.04
2017-08-06T02:17:58.814Z,1010.08
2017-08-06T02:18:58.791Z,1010.08
2017-08-06T02:19:58.766Z,1010.13
2017-08-06T02:20:58.742Z,1010.09
2017-08-06T02:21:58.719Z,1010.12
2017-08-06T02:22:58.694Z,1010.14
2017-08-06T02:23:58.672Z,1010.15
2017-08-06T02:24:58.646Z,1010.13
2017-08-06T02:25:58.623Z,1010.17
2017-08-06T02:26:58.599Z,1010.16
2017-08-06T02:27:58.577Z,1010.14
2017-08-06T02:28:58.552Z,1010.16
2017-08-06T02:29:58.527Z,1010.17
2017-08-06T02:30:58.505Z,1010.15
2017-08-06T02:31:58.480Z,1010.2
2017-08-06T02:32:58.456Z,1010.22
2017-08-06T02:33:58.432Z,1010.13
2017-08-06T02:34:58.410Z,1010.21
2017-08-06T02:35:58.383Z,1010.21
2017-08-06T02:36:58.361Z,1010.22
2017-08-06T02:37:58.336Z,1010.25
2017-08-06T02:38:58.311Z,1010.25
2017-08-06T02:39:58.288Z,1010.28
2017-08-06T02:40:58.265Z,1010.29
2017-08-06T02:41:58.240Z,1010.32
2017-08-06T02:42:58.217Z,1010.31
2017-08-06T02:43:58.191Z,1010.34
2017-08-06T02:44:58.169Z,1010.34
2017-08-06T02:45:58.144Z,1010.34
2017-08-06T02:46:58.119Z,1010.34
2017-08-06T02:47:58.097Z,1010.35
2017-08-06T02:48:58.072Z,1010.37
2017-08-06T02:49:58.056Z,1010.36
2017-08-06T02:50:58.023Z,1010.4
2017-08-06T02:51:58.000Z,1010.36
2017-08-06T02:52:57.974Z,1010.36
2017-08-06T02:53:57.950Z,1010.38
2017-08-06T02:54:57.926Z,1010.37
2017-08-06T02:55:57.903Z,1010.39
2017-08-06T02:56:57.878Z,1010.39
2017-08-06T02:57:57.856Z,1010.37
2017-08-06T02:58:57.830Z,1010.38
2017-08-06T02:59:57.805Z,1010.39
2017-08-06T03:00:57.782Z,1010.38
2017-08-06T03:01:57.758Z,1010.36
2017-08-06T03:02:57.733Z,1010.4
2017-08-06T03:03:57.710Z,1010.38
2017-08-06T03:04:57.704Z,1010.42
2017-08-06T03:05:57.682Z,1010.46
2017-08-06T03:06:57.665Z,1010.44
2017-08-06T03:07:57.613Z,1010.51
2017-08-06T03:08:57.589Z,1010.5
2017-08-06T03:09:57.588Z,1010.52
2017-08-06T03:10:57.562Z,1010.48
2017-08-06T03:11:57.523Z,1010.5
2017-08-06T03:12:57.593Z,1010.5
2017-08-06T03:13:57.465Z,1010.5
2017-08-06T03:14:57.456Z,1010.53
2017-08-06T03:15:57.443Z,1010.55
2017-08-06T03:16:57.427Z,1010.54
2017-08-06T03:17:57.369Z,1010.57
2017-08-06T03:18:57.346Z,1010.58
2017-08-06T03:19:57.340Z,1010.56
2017-08-06T03:20:57.296Z,1010.62
2017-08-06T03:21:57.294Z,1010.62
2017-08-06T03:22:57.248Z,1010.6
2017-08-06T03:23:57.233Z,1010.63
2017-08-06T03:24:57.217Z,1010.64
2017-08-06T03:25:57.194Z,1010.67
2017-08-06T03:26:57.151Z,1010.66
2017-08-06T03:27:57.128Z,1010.66
2017-08-06T03:28:57.102Z,1010.67
2017-08-06T03:29:57.079Z,1010.68
2017-08-06T03:30:57.052Z,1010.66
2017-08-06T03:31:57.044Z,1010.64
2017-08-06T03:32:57.013Z,1010.7
2017-08-06T03:33:56.978Z,1010.68
2017-08-06T03:34:56.955Z,1010.68
2017-08-06T03:35:56.938Z,1010.67
2017-08-06T03:36:56.936Z,1010.68
2017-08-06T03:37:56.912Z,1010.73
2017-08-06T03:38:56.867Z,1010.74
2017-08-06T03:39:56.830Z,1010.72
2017-08-06T03:40:56.806Z,1010.73
2017-08-06T03:41:56.781Z,1010.72
2017-08-06T03:42:56.758Z,1010.7
2017-08-06T03:43:56.734Z,1010.74
2017-08-06T03:44:56.708Z,1010.73
2017-08-06T03:45:56.684Z,1010.7
2017-08-06T03:46:56.660Z,1010.72
2017-08-06T03:47:56.662Z,1010.7
2017-08-06T03:48:56.611Z,1010.71
2017-08-06T03:49:56.586Z,1010.7
2017-08-06T03:50:56.561Z,1010.68
2017-08-06T03:51:56.538Z,1010.71
2017-08-06T03:52:56.511Z,1010.71
2017-08-06T03:53:56.489Z,1010.7
2017-08-06T03:54:56.463Z,1010.73
2017-08-06T03:55:56.439Z,1010.7
2017-08-06T03:56:56.414Z,1010.73
2017-08-06T03:57:56.389Z,1010.72
2017-08-06T03:58:56.366Z,1010.73
2017-08-06T03:59:56.341Z,1010.71
2017-08-06T04:00:56.317Z,1010.72
2017-08-06T04:01:56.291Z,1010.74
2017-08-06T04:02:56.267Z,1010.7
2017-08-06T04:03:56.243Z,1010.73
2017-08-06T04:04:56.217Z,1010.76
2017-08-06T04:05:56.194Z,1010.78
2017-08-06T04:06:56.171Z,1010.76
2017-08-06T04:07:56.143Z,1010.78
2017-08-06T04:08:56.120Z,1010.81
2017-08-06T04:09:56.096Z,1010.83
2017-08-06T04:10:56.071Z,1010.82
2017-08-06T04:11:56.045Z,1010.84
2017-08-06T04:12:56.022Z,1010.84
2017-08-06T04:13:55.997Z,1010.87
2017-08-06T04:14:55.971Z,1010.85
2017-08-06T04:15:55.949Z,1010.86
2017-08-06T04:16:55.923Z,1010.88
2017-08-06T04:17:55.897Z,1010.9
2017-08-06T04:18:55.874Z,1010.92
2017-08-06T04:19:55.850Z,1010.91
2017-08-06T04:20:55.826Z,1010.91
2017-08-06T04:21:55.798Z,1010.93
2017-08-06T04:22:55.776Z,1010.96
2017-08-06T04:23:55.753Z,1010.97
2017-08-06T04:24:55.727Z,1010.96
2017-08-06T04:25:55.703Z,1010.95
2017-08-06T04:26:55.679Z,1010.96
2017-08-06T04:27:55.654Z,1010.99
2017-08-06T04:28:55.628Z,1010.97
2017-08-06T04:29:55.605Z,1010.98
2017-08-06T04:30:55.579Z,1010.98
2017-08-06T04:31:55.557Z,1011
2017-08-06T04:32:55.532Z,1010.97
2017-08-06T04:33:55.507Z,1011.01
2017-08-06T04:34:55.483Z,1011
2017-08-06T04:35:55.459Z,1011.01
2017-08-06T04:36:55.434Z,1011.02
2017-08-06T04:37:55.408Z,1011.03
2017-08-06T04:38:55.387Z,1011.04
2017-08-06T04:39:55.361Z,1011.02
2017-08-06T04:40:55.336Z,1011.06
2017-08-06T04:41:55.312Z,1011.07
2017-08-06T04:42:55.287Z,1011.08
2017-08-06T04:43:55.261Z,1011.03
2017-08-06T04:44:55.239Z,1011.12
2017-08-06T04:45:55.213Z,1011.08
2017-08-06T04:46:55.190Z,1011.1
2017-08-06T04:47:55.165Z,1011.07
2017-08-06T04:48:55.141Z,1011.08
2017-08-06T04:49:55.118Z,1011.11
2017-08-06T04:50:55.093Z,1011.08
2017-08-06T04:51:55.069Z,1011.11
2017-08-06T04:52:55.043Z,1011.15
2017-08-06T04:53:55.021Z,1011.12
2017-08-06T04:54:54.995Z,1011.13
2017-08-06T04:55:54.972Z,1011.17
2017-08-06T04:56:54.947Z,1011.14
2017-08-06T04:57:54.923Z,1011.15
2017-08-06T04:58:54.899Z,1011.16
2017-08-06T04:59:54.874Z,1011.23
2017-08-06T05:00:54.849Z,1011.23
2017-08-06T05:01:54.825Z,1011.24
2017-08-06T05:02:54.801Z,1011.25
2017-08-06T05:03:54.790Z,1011.25
2017-08-06T05:04:54.753Z,1011.3
2017-08-06T05:05:54.728Z,1011.35
2017-08-06T05:06:54.705Z,1011.32
2017-08-06T05:07:54.680Z,1011.36
2017-08-06T05:08:54.655Z,1011.32
2017-08-06T05:09:54.631Z,1011.38
2017-08-06T05:10:54.608Z,1011.35
2017-08-06T05:11:54.584Z,1011.4
2017-08-06T05:12:54.559Z,1011.39
2017-08-06T05:13:54.535Z,1011.42
2017-08-06T05:14:54.512Z,1011.39
2017-08-06T05:15:54.489Z,1011.38
2017-08-06T05:16:54.463Z,1011.37
2017-08-06T05:17:54.438Z,1011.35
2017-08-06T05:18:54.416Z,1011.31
2017-08-06T05:19:54.389Z,1011.34
2017-08-06T05:20:54.367Z,1011.37
2017-08-06T05:21:54.342Z,1011.41
2017-08-06T05:22:54.320Z,1011.4
2017-08-06T05:23:54.294Z,1011.46
2017-08-06T05:24:54.272Z,1011.42
2017-08-06T05:25:54.246Z,1011.41
2017-08-06T05:26:54.223Z,1011.49
2017-08-06T05:27:54.199Z,1011.47
2017-08-06T05:28:54.176Z,1011.44
2017-08-06T05:29:54.151Z,1011.48
2017-08-06T05:30:54.177Z,1011.46
2017-08-06T05:31:54.103Z,1011.51
2017-08-06T05:32:54.079Z,1011.57
2017-08-06T05:33:54.055Z,1011.54
2017-08-06T05:34:54.031Z,1011.47
2017-08-06T05:35:54.006Z,1011.54
2017-08-06T05:36:53.984Z,1011.56
2017-08-06T05:37:53.961Z,1011.58
2017-08-06T05:38:53.934Z,1011.53
2017-08-06T05:39:53.912Z,1011.57
2017-08-06T05:40:53.888Z,1011.61
2017-08-06T05:41:53.864Z,1011.61
2017-08-06T05:42:53.840Z,1011.59
2017-08-06T05:43:53.818Z,1011.56
2017-08-06T05:44:53.794Z,1011.58
2017-08-06T05:45:53.769Z,1011.6
2017-08-06T05:46:53.746Z,1011.61
2017-08-06T05:47:53.723Z,1011.59
2017-08-06T05:48:53.700Z,1011.63
2017-08-06T05:49:53.675Z,1011.64
2017-08-06T05:50:53.653Z,1011.66
2017-08-06T05:51:53.629Z,1011.64
2017-08-06T05:52:53.606Z,1011.63
2017-08-06T05:53:53.582Z,1011.64
2017-08-06T05:54:53.558Z,1011.66
2017-08-06T05:55:53.536Z,1011.63
2017-08-06T05:56:53.512Z,1011.67
2017-08-06T05:57:53.488Z,1011.7
2017-08-06T05:58:53.465Z,1011.71
2017-08-06T05:59:53.442Z,1011.75
2017-08-06T06:00:53.418Z,1011.77
2017-08-06T06:01:53.396Z,1011.78
2017-08-06T06:02:53.374Z,1011.82
2017-08-06T06:03:53.400Z,1011.81
2017-08-06T06:04:53.329Z,1011.83
2017-08-06T06:05:53.307Z,1011.85
2017-08-06T06:06:53.285Z,1011.88
2017-08-06T06:07:53.261Z,1011.9
2017-08-06T06:08:53.240Z,1011.91
2017-08-06T06:09:53.218Z,1011.91
2017-08-06T06:10:53.196Z,1011.89
2017-08-06T06:11:53.174Z,1011.91
2017-08-06T06:12:53.388Z,1011.94
2017-08-06T06:13:53.132Z,1011.94
2017-08-06T06:14:53.110Z,1011.96
2017-08-06T06:15:53.089Z,1011.97
2017-08-06T06:16:53.070Z,1012.02
2017-08-06T06:17:53.048Z,1012.05
2017-08-06T06:18:53.028Z,1012.02
2017-08-06T06:19:53.010Z,1012.04
2017-08-06T06:20:52.987Z,1012.08
2017-08-06T06:21:52.967Z,1012.14
2017-08-06T06:22:52.947Z,1012.16
2017-08-06T06:23:52.928Z,1012.19
2017-08-06T06:24:52.908Z,1012.16
2017-08-06T06:25:52.888Z,1012.16
2017-08-06T06:26:52.868Z,1012.17
2017-08-06T06:27:52.850Z,1012.18
2017-08-06T06:28:52.830Z,1012.18
2017-08-06T06:29:52.811Z,1012.2
2017-08-06T06:30:52.790Z,1012.22
2017-08-06T06:31:52.772Z,1012.22
2017-08-06T06:32:52.752Z,1012.2
2017-08-06T06:33:52.733Z,1012.2
2017-08-06T06:34:52.715Z,1012.21
2017-08-06T06:35:52.696Z,1012.21
2017-08-06T06:36:52.677Z,1012.22
2017-08-06T06:37:52.658Z,1012.22
2017-08-06T06:38:52.641Z,1012.29
2017-08-06T06:39:52.622Z,1012.31
2017-08-06T06:40:52.602Z,1012.31
2017-08-06T06:41:52.583Z,1012.32
2017-08-06T06:42:52.567Z,1012.32
2017-08-06T06:43:52.545Z,1012.31
2017-08-06T06:44:52.527Z,1012.3
2017-08-06T06:45:52.507Z,1012.34
2017-08-06T06:46:52.489Z,1012.28
2017-08-06T06:47:52.469Z,1012.35
2017-08-06T06:48:52.452Z,1012.32
2017-08-06T06:49:52.432Z,1012.35
2017-08-06T06:50:52.419Z,1012.34
2017-08-06T06:51:52.396Z,1012.36
2017-08-06T06:52:52.376Z,1012.38
2017-08-06T06:53:52.362Z,1012.38
2017-08-06T06:54:52.339Z,1012.4
2017-08-06T06:55:52.325Z,1012.42
2017-08-06T06:56:52.304Z,1012.41
2017-08-06T06:57:52.286Z,1012.44
2017-08-06T06:58:52.266Z,1012.45
2017-08-06T06:59:52.247Z,1012.47
2017-08-06T07:00:52.230Z,1012.45
2017-08-06T07:01:52.211Z,1012.49
2017-08-06T07:02:52.193Z,1012.44
2017-08-06T07:03:52.177Z,1012.49
2017-08-06T07:04:52.156Z,1012.48
2017-08-06T07:05:52.136Z,1012.52
2017-08-06T07:06:52.119Z,1012.48
2017-08-06T07:07:52.102Z,1012.53
2017-08-06T07:08:52.085Z,1012.51
2017-08-06T07:09:52.066Z,1012.54
2017-08-06T07:10:52.049Z,1012.51
2017-08-06T07:11:52.033Z,1012.57
2017-08-06T07:12:52.017Z,1012.58
2017-08-06T07:13:51.998Z,1012.59
2017-08-06T07:14:51.982Z,1012.6
2017-08-06T07:15:51.965Z,1012.58
2017-08-06T07:16:51.948Z,1012.58
2017-08-06T07:17:51.931Z,1012.56
2017-08-06T07:18:51.914Z,1012.62
2017-08-06T07:19:51.899Z,1012.58
2017-08-06T07:20:51.882Z,1012.59
2017-08-06T07:21:51.865Z,1012.57
2017-08-06T07:22:51.849Z,1012.61
2017-08-06T07:23:51.832Z,1012.61
2017-08-06T07:24:51.816Z,1012.62
2017-08-06T07:25:51.802Z,1012.63
2017-08-06T07:26:51.832Z,1012.62
2017-08-06T07:27:51.767Z,1012.66
2017-08-06T07:28:51.751Z,1012.67
2017-08-06T07:29:51.735Z,1012.62
2017-08-06T07:30:51.721Z,1012.64
2017-08-06T07:31:51.704Z,1012.62
2017-08-06T07:32:51.689Z,1012.64
2017-08-06T07:33:51.681Z,1012.61
2017-08-06T07:34:51.660Z,1012.66
2017-08-06T07:35:51.645Z,1012.64
2017-08-06T07:36:51.630Z,1012.65
2017-08-06T07:37:51.616Z,1012.67
2017-08-06T07:38:51.601Z,1012.66
2017-08-06T07:39:51.592Z,1012.66
2017-08-06T07:40:51.573Z,1012.73
2017-08-06T07:41:51.561Z,1012.68
2017-08-06T07:42:51.545Z,1012.7
2017-08-06T07:43:51.531Z,1012.7
2017-08-06T07:44:51.518Z,1012.7
2017-08-06T07:45:51.505Z,1012.69
2017-08-06T07:46:51.492Z,1012.7
2017-08-06T07:47:51.477Z,1012.66
2017-08-06T07:48:51.463Z,1012.67
2017-08-06T07:49:51.450Z,1012.75
2017-08-06T07:50:51.436Z,1012.72
2017-08-06T07:51:51.432Z,1012.73
2017-08-06T07:52:51.410Z,1012.74
2017-08-06T07:53:51.399Z,1012.77
2017-08-06T07:54:51.381Z,1012.79
2017-08-06T07:55:51.366Z,1012.79
2017-08-06T07:56:51.355Z,1012.8
2017-08-06T07:57:51.338Z,1012.82
2017-08-06T07:58:51.323Z,1012.81
2017-08-06T07:59:51.310Z,1012.84
2017-08-06T08:00:51.294Z,1012.84
2017-08-06T08:01:51.280Z,1012.74
2017-08-06T08:02:51.266Z,1012.82
2017-08-06T08:03:51.299Z,1012.78
2017-08-06T08:04:51.237Z,1012.82
2017-08-06T08:05:51.221Z,1012.8
2017-08-06T08:06:51.205Z,1012.82
2017-08-06T08:07:51.191Z,1012.79
2017-08-06T08:08:51.176Z,1012.84
2017-08-06T08:09:51.161Z,1012.84
2017-08-06T08:10:51.149Z,1012.82
2017-08-06T08:11:51.134Z,1012.81
2017-08-06T08:12:51.122Z,1012.82
2017-08-06T08:13:51.108Z,1012.82
2017-08-06T08:14:51.096Z,1012.81
2017-08-06T08:15:51.082Z,1012.83
2017-08-06T08:16:51.070Z,1012.81
2017-08-06T08:17:51.058Z,1012.78
2017-08-06T08:18:51.043Z,1012.82
2017-08-06T08:19:51.032Z,1012.77
2017-08-06T08:20:51.018Z,1012.76
2017-08-06T08:21:51.007Z,1012.74
2017-08-06T08:22:50.996Z,1012.76
2017-08-06T08:23:50.985Z,1012.81
2017-08-06T08:24:50.972Z,1012.74
2017-08-06T08:25:50.962Z,1012.73
2017-08-06T08:26:50.950Z,1012.75
2017-08-06T08:27:50.939Z,1012.76
2017-08-06T08:28:50.927Z,1012.77
2017-08-06T08:29:50.916Z,1012.77
2017-08-06T08:30:50.904Z,1012.82
2017-08-06T08:31:50.893Z,1012.83
2017-08-06T08:32:50.883Z,1012.8
2017-08-06T08:33:50.870Z,1012.78
2017-08-06T08:34:50.860Z,1012.83
2017-08-06T08:35:50.849Z,1012.84
2017-08-06T08:36:50.838Z,1012.87
2017-08-06T08:37:50.826Z,1012.87
2017-08-06T08:38:50.816Z,1012.82
2017-08-06T08:39:50.805Z,1012.82
2017-08-06T08:40:50.794Z,1012.86
2017-08-06T08:41:50.783Z,1012.87
2017-08-06T08:42:50.773Z,1012.87
2017-08-06T08:43:50.764Z,1012.83
2017-08-06T08:44:50.751Z,1012.86
2017-08-06T08:45:50.741Z,1012.85
2017-08-06T08:46:50.729Z,1012.91
2017-08-06T08:47:50.721Z,1012.93
2017-08-06T08:48:50.711Z,1012.93
2017-08-06T08:49:50.700Z,1012.92
2017-08-06T08:50:50.690Z,1012.97
2017-08-06T08:51:50.679Z,1012.98
2017-08-06T08:52:50.667Z,1012.94
2017-08-06T08:53:50.658Z,1012.94
2017-08-06T08:54:50.681Z,1012.89
2017-08-06T08:55:50.634Z,1012.92
2017-08-06T08:56:50.761Z,1012.88
2017-08-06T08:57:50.616Z,1012.86
2017-08-06T08:58:50.607Z,1012.91
2017-08-06T08:59:50.708Z,1012.91
2017-08-06T09:00:50.586Z,1012.98
2017-08-06T09:01:50.575Z,1012.94
2017-08-06T09:02:50.836Z,1012.93
2017-08-06T09:03:50.558Z,1012.97
2017-08-06T09:04:50.545Z,1012.95
2017-08-06T09:05:50.537Z,1012.96
2017-08-06T09:06:50.526Z,1012.94
2017-08-06T09:07:50.518Z,1012.91
2017-08-06T09:08:50.507Z,1012.94
2017-08-06T09:09:50.498Z,1012.91
2017-08-06T09:10:50.490Z,1012.93
2017-08-06T09:11:50.481Z,1012.98
2017-08-06T09:12:50.705Z,1012.95
2017-08-06T09:13:50.461Z,1012.95
2017-08-06T09:14:50.452Z,1012.98
2017-08-06T09:15:50.445Z,1012.96
2017-08-06T09:16:50.435Z,1012.98
2017-08-06T09:17:50.428Z,1012.98
2017-08-06T09:18:50.421Z,1013.01
2017-08-06T09:19:50.411Z,1013.02
2017-08-06T09:20:50.404Z,1013.04
2017-08-06T09:21:50.392Z,1013.05
2017-08-06T09:22:50.384Z,1013.1
2017-08-06T09:23:50.374Z,1013.06
2017-08-06T09:24:50.366Z,1013.05
2017-08-06T09:25:50.357Z,1013.05
2017-08-06T09:26:50.349Z,1012.99
2017-08-06T09:27:50.342Z,1012.97
2017-08-06T09:28:50.331Z,1012.99
2017-08-06T09:29:50.324Z,1012.97
2017-08-06T09:30:50.314Z,1012.99
2017-08-06T09:31:50.308Z,1013.03
2017-08-06T09:32:50.299Z,1012.99
2017-08-06T09:33:50.293Z,1013.01
2017-08-06T09:34:50.285Z,1013.03
2017-08-06T09:35:50.277Z,1013.08
2017-08-06T09:36:50.276Z,1013.03
2017-08-06T09:37:50.263Z,1013.03
2017-08-06T09:38:50.254Z,1013.07
2017-08-06T09:39:50.246Z,1013.07
2017-08-06T09:40:50.237Z,1013.14
2017-08-06T09:41:50.229Z,1013.13
2017-08-06T09:42:50.219Z,1013.07
2017-08-06T09:43:50.211Z,1013.08
2017-08-06T09:44:50.201Z,1013.08
2017-08-06T09:45:50.193Z,1013.04
2017-08-06T09:46:50.182Z,1012.98
2017-08-06T09:47:50.173Z,1012.99
2017-08-06T09:48:50.169Z,1012.94
2017-08-06T09:49:50.156Z,1012.92
2017-08-06T09:50:50.148Z,1012.97
2017-08-06T09:51:50.140Z,1012.97
2017-08-06T09:52:50.131Z,1013.02
2017-08-06T09:53:50.123Z,1012.99
2017-08-06T09:54:50.117Z,1013.03
2017-08-06T09:55:50.110Z,1013.05
2017-08-06T09:56:50.102Z,1013.02
2017-08-06T09:57:50.093Z,1012.95
2017-08-06T09:58:50.087Z,1013.01
2017-08-06T09:59:50.082Z,1012.99
2017-08-06T10:00:50.075Z,1012.96
2017-08-06T10:01:50.068Z,1012.97
2017-08-06T10:02:50.062Z,1012.94
2017-08-06T10:03:50.055Z,1013
2017-08-06T10:04:50.049Z,1012.93
2017-08-06T10:05:50.042Z,1012.98
2017-08-06T10:06:50.036Z,1012.94
2017-08-06T10:07:50.028Z,1012.92
2017-08-06T10:08:50.021Z,1012.91
2017-08-06T10:09:50.017Z,1012.88
2017-08-06T10:10:50.008Z,1012.81
2017-08-06T10:11:50.000Z,1012.89
2017-08-06T10:12:49.994Z,1012.89
2017-08-06T10:13:49.986Z,1012.92
2017-08-06T10:14:49.982Z,1012.9
2017-08-06T10:15:49.974Z,1012.93
2017-08-06T10:16:49.967Z,1012.9
2017-08-06T10:17:49.961Z,1012.89
2017-08-06T10:18:49.957Z,1012.86
2017-08-06T10:19:49.950Z,1012.83
2017-08-06T10:20:49.943Z,1012.84
2017-08-06T10:21:49.939Z,1012.91
2017-08-06T10:22:49.932Z,1012.85
2017-08-06T10:23:49.926Z,1012.85
2017-08-06T10:24:49.922Z,1012.83
2017-08-06T10:25:49.917Z,1012.77
2017-08-06T10:26:49.911Z,1012.75
2017-08-06T10:27:49.905Z,1012.78
2017-08-06T10:28:49.900Z,1012.76
2017-08-06T10:29:49.894Z,1012.76
2017-08-06T10:30:49.887Z,1012.8
2017-08-06T10:31:49.883Z,1012.79
2017-08-06T10:32:49.875Z,1012.83
2017-08-06T10:33:49.870Z,1012.76
2017-08-06T10:34:49.863Z,1012.8
2017-08-06T10:35:49.857Z,1012.77
2017-08-06T10:36:49.851Z,1012.71
2017-08-06T10:37:49.842Z,1012.69
2017-08-06T10:38:49.835Z,1012.72
2017-08-06T10:39:49.831Z,1012.72
2017-08-06T10:40:49.822Z,1012.7
2017-08-06T10:41:49.815Z,1012.71
2017-08-06T10:42:49.808Z,1012.72
2017-08-06T10:43:49.801Z,1012.72
2017-08-06T10:44:49.792Z,1012.7
2017-08-06T10:45:49.783Z,1012.7
2017-08-06T10:46:49.775Z,1012.68
2017-08-06T10:47:49.773Z,1012.73
2017-08-06T10:48:49.758Z,1012.75
2017-08-06T10:49:49.750Z,1012.69
2017-08-06T10:50:49.741Z,1012.71
2017-08-06T10:51:49.732Z,1012.74
2017-08-06T10:52:49.719Z,1012.68
2017-08-06T10:53:49.710Z,1012.67
2017-08-06T10:54:49.700Z,1012.7
2017-08-06T10:55:49.691Z,1012.68
2017-08-06T10:56:49.683Z,1012.67
2017-08-06T10:57:49.668Z,1012.71
2017-08-06T10:58:49.658Z,1012.72
2017-08-06T10:59:49.648Z,1012.68
2017-08-06T11:00:49.638Z,1012.62
2017-08-06T11:01:49.627Z,1012.6
2017-08-06T11:02:49.667Z,1012.63
2017-08-06T11:03:49.606Z,1012.65
2017-08-06T11:04:49.595Z,1012.69
2017-08-06T11:05:49.585Z,1012.67
2017-08-06T11:06:49.575Z,1012.77
2017-08-06T11:07:49.564Z,1012.74
2017-08-06T11:08:49.555Z,1012.67
2017-08-06T11:09:49.544Z,1012.75
2017-08-06T11:10:49.532Z,1012.73
2017-08-06T11:11:49.520Z,1012.73
2017-08-06T11:12:49.508Z,1012.7
2017-08-06T11:13:49.546Z,1012.68
2017-08-06T11:14:49.485Z,1012.71
2017-08-06T11:15:49.472Z,1012.7
2017-08-06T11:16:49.460Z,1012.66
2017-08-06T11:17:49.448Z,1012.67
2017-08-06T11:18:49.437Z,1012.6
2017-08-06T11:19:49.426Z,1012.61
2017-08-06T11:20:49.413Z,1012.61
2017-08-06T11:21:49.400Z,1012.63
2017-08-06T11:22:49.389Z,1012.59
2017-08-06T11:23:49.377Z,1012.61
2017-08-06T11:24:49.367Z,1012.57
2017-08-06T11:25:49.353Z,1012.53
2017-08-06T11:26:49.340Z,1012.52
2017-08-06T11:27:49.329Z,1012.55
2017-08-06T11:28:49.316Z,1012.59
2017-08-06T11:29:49.305Z,1012.6
2017-08-06T11:30:49.294Z,1012.59
2017-08-06T11:31:49.282Z,1012.52
2017-08-06T11:32:49.269Z,1012.52
2017-08-06T11:33:49.257Z,1012.53
2017-08-06T11:34:49.244Z,1012.54
2017-08-06T11:35:49.232Z,1012.58
2017-08-06T11:36:49.220Z,1012.58
2017-08-06T11:37:49.207Z,1012.54
2017-08-06T11:38:49.193Z,1012.6
2017-08-06T11:39:49.180Z,1012.62
2017-08-06T11:40:49.167Z,1012.61
2017-08-06T11:41:49.153Z,1012.6
2017-08-06T11:42:49.139Z,1012.57
2017-08-06T11:43:49.126Z,1012.6
2017-08-06T11:44:49.111Z,1012.58
2017-08-06T11:45:49.096Z,1012.57
2017-08-06T11:46:49.084Z,1012.54
2017-08-06T11:47:49.069Z,1012.47
2017-08-06T11:48:49.055Z,1012.49
2017-08-06T11:49:49.041Z,1012.49
2017-08-06T11:50:49.027Z,1012.54
2017-08-06T11:51:49.011Z,1012.47
2017-08-06T11:52:48.998Z,1012.44
2017-08-06T11:53:48.984Z,1012.45
2017-08-06T11:54:48.970Z,1012.42
2017-08-06T11:55:48.956Z,1012.39
2017-08-06T11:56:48.942Z,1012.39
2017-08-06T11:57:48.928Z,1012.43
2017-08-06T11:58:48.914Z,1012.48
2017-08-06T11:59:48.900Z,1012.47
2017-08-06T12:00:48.886Z,1012.38
2017-08-06T12:01:48.871Z,1012.42
2017-08-06T12:02:48.858Z,1012.36
2017-08-06T12:03:48.843Z,1012.35
2017-08-06T12:04:48.830Z,1012.32
2017-08-06T12:05:48.816Z,1012.31
2017-08-06T12:06:48.802Z,1012.34
2017-08-06T12:07:48.789Z,1012.33